createdAt,value
2023-03-18T00:01:42.396Z,2.65
2023-03-18T00:04:11.487Z,2.64
2023-03-18T00:06:40.803Z,2.58
2023-03-18T00:09:08.876Z,2.55
2023-03-18T00:11:37.743Z,2.57
2023-03-18T00:14:06.152Z,2.55
2023-03-18T00:16:35.352Z,2.50
2023-03-18T00:19:04.343Z,2.51
2023-03-18T00:21:32.738Z,2.51
2023-03-18T00:24:00.920Z,2.51
2023-03-18T00:26:29.609Z,2.48
2023-03-18T00:28:58.609Z,2.52
2023-03-18T00:31:29.102Z,2.59
2023-03-18T00:33:59.376Z,2.68
2023-03-18T00:36:27.763Z,2.76
2023-03-18T00:38:58.032Z,2.84
2023-03-18T00:41:28.714Z,2.82
2023-03-18T00:43:58.859Z,2.83
2023-03-18T00:46:31.834Z,2.88
2023-03-18T00:49:02.239Z,2.84
2023-03-18T00:51:32.461Z,2.76
2023-03-18T00:54:02.042Z,2.73
2023-03-18T00:56:31.414Z,2.70
2023-03-18T00:59:00.455Z,2.66
2023-03-18T01:01:29.098Z,2.65
2023-03-18T01:04:00.279Z,2.71
2023-03-18T01:06:31.713Z,2.79
2023-03-18T01:09:01.625Z,2.86
2023-03-18T01:11:30.307Z,2.90
2023-03-18T01:13:59.820Z,2.88
2023-03-18T01:16:28.292Z,2.81
2023-03-18T01:18:56.799Z,2.74
2023-03-18T01:21:26.216Z,2.70
2023-03-18T01:23:57.452Z,2.70
2023-03-18T01:26:27.175Z,2.73
2023-03-18T01:28:57.179Z,2.78
2023-03-18T01:31:25.817Z,2.82
2023-03-18T01:33:56.415Z,2.85
2023-03-18T01:36:25.416Z,2.82
2023-03-18T01:39:03.818Z,2.82
2023-03-18T01:41:32.202Z,2.85
2023-03-18T01:44:02.324Z,2.88
2023-03-18T01:46:38.690Z,2.88
2023-03-18T01:49:11.065Z,2.88
2023-03-18T01:51:41.030Z,2.80
2023-03-18T01:54:09.471Z,2.76
2023-03-18T01:56:39.569Z,2.71
2023-03-18T01:59:09.516Z,2.69
2023-03-18T02:01:50.103Z,2.69
2023-03-18T02:04:21.648Z,2.71
2023-03-18T02:06:50.426Z,2.72
2023-03-18T02:09:19.290Z,2.74
2023-03-18T02:11:51.913Z,2.78
2023-03-18T02:14:22.348Z,2.77
2023-03-18T02:17:20.104Z,2.75
2023-03-18T02:20:00.957Z,2.77
2023-03-18T02:22:33.551Z,2.76
2023-03-18T02:25:19.529Z,2.73
2023-03-18T02:27:51.388Z,2.68
2023-03-18T02:30:23.150Z,2.73
2023-03-18T02:32:53.193Z,2.80
2023-03-18T02:35:21.666Z,2.82
2023-03-18T02:37:50.659Z,2.81
2023-03-18T02:40:21.300Z,2.85
2023-03-18T02:42:50.177Z,2.91
2023-03-18T02:45:38.627Z,2.96
2023-03-18T02:48:18.578Z,2.93
2023-03-18T02:50:48.609Z,2.90
2023-03-18T02:53:17.090Z,2.82
2023-03-18T02:55:45.883Z,2.80
2023-03-18T02:58:14.060Z,2.79
2023-03-18T03:00:42.878Z,2.77
2023-03-18T03:03:11.245Z,2.74
2023-03-18T03:05:40.043Z,2.75
2023-03-18T03:08:08.829Z,2.76
2023-03-18T03:10:38.656Z,2.78
2023-03-18T03:13:09.876Z,2.79
2023-03-18T03:15:39.820Z,2.79
2023-03-18T03:18:08.991Z,2.82
2023-03-18T03:20:39.134Z,2.86
2023-03-18T03:23:08.141Z,2.88
2023-03-18T03:25:37.054Z,2.90
2023-03-18T03:28:06.241Z,2.91
2023-03-18T03:30:35.557Z,2.89
2023-03-18T03:33:04.058Z,2.90
2023-03-18T03:35:32.870Z,2.86
2023-03-18T03:38:01.208Z,2.86
2023-03-18T03:40:29.678Z,2.89
2023-03-18T03:42:58.504Z,2.94
2023-03-18T03:45:27.588Z,2.98
2023-03-18T03:47:56.188Z,3.02
2023-03-18T03:50:24.569Z,3.05
2023-03-18T03:52:53.624Z,3.10
2023-03-18T03:55:22.834Z,3.17
2023-03-18T03:57:51.763Z,3.19
2023-03-18T04:00:21.884Z,3.23
2023-03-18T04:02:51.750Z,3.27
2023-03-18T04:05:22.778Z,3.30
2023-03-18T04:07:52.493Z,3.29
2023-03-18T04:10:26.694Z,3.30
2023-03-18T04:12:55.575Z,3.31
2023-03-18T04:15:24.174Z,3.34
2023-03-18T04:17:53.774Z,3.38
2023-03-18T04:20:22.771Z,3.40
2023-03-18T04:22:51.263Z,3.38
2023-03-18T04:25:21.081Z,3.38
2023-03-18T04:27:53.041Z,3.36
2023-03-18T04:30:23.584Z,3.37
2023-03-18T04:33:18.261Z,3.41
2023-03-18T04:35:47.778Z,3.47
2023-03-18T04:38:16.357Z,3.52
2023-03-18T04:40:45.783Z,3.51
2023-03-18T04:43:15.507Z,3.52
2023-03-18T04:45:45.318Z,3.53
2023-03-18T04:48:13.685Z,3.53
2023-03-18T04:50:43.912Z,3.54
2023-03-18T04:53:15.886Z,3.59
2023-03-18T04:55:45.188Z,3.62
2023-03-18T04:58:14.284Z,3.64
2023-03-18T05:00:47.270Z,3.64
2023-03-18T05:03:29.515Z,3.65
2023-03-18T05:05:58.366Z,3.68
2023-03-18T05:08:34.709Z,3.71
2023-03-18T05:11:03.627Z,3.72
2023-03-18T05:13:32.216Z,3.74
2023-03-18T05:16:01.658Z,3.76
2023-03-18T05:18:30.229Z,3.81
2023-03-18T05:21:01.162Z,3.82
2023-03-18T05:23:29.748Z,3.84
2023-03-18T05:25:58.455Z,3.86
2023-03-18T05:28:27.958Z,3.85
2023-03-18T05:31:11.583Z,3.82
2023-03-18T05:33:42.830Z,3.84
2023-03-18T05:36:12.789Z,3.88
2023-03-18T05:38:50.038Z,3.90
2023-03-18T05:41:18.766Z,3.94
2023-03-18T05:43:49.097Z,3.96
2023-03-18T05:46:18.163Z,4.01
2023-03-18T05:48:56.875Z,4.05
2023-03-18T05:51:28.328Z,4.08
2023-03-18T05:53:57.535Z,4.13
2023-03-18T05:56:30.929Z,4.18
2023-03-18T05:59:01.165Z,4.21
2023-03-18T06:01:49.173Z,4.24
2023-03-18T06:04:19.434Z,4.21
2023-03-18T06:06:48.516Z,4.21
2023-03-18T06:09:17.617Z,4.27
2023-03-18T06:11:46.839Z,4.35
2023-03-18T06:14:15.512Z,4.41
2023-03-18T06:16:44.547Z,4.45
2023-03-18T06:19:13.436Z,4.48
2023-03-18T06:21:42.925Z,4.50
2023-03-18T06:24:11.508Z,4.52
2023-03-18T06:26:39.888Z,4.58
2023-03-18T06:29:08.587Z,4.63
2023-03-18T06:31:37.889Z,4.69
2023-03-18T06:34:06.993Z,4.69
2023-03-18T06:36:37.841Z,4.67
2023-03-18T06:39:07.769Z,4.67
2023-03-18T06:41:36.959Z,4.75
2023-03-18T06:44:25.583Z,4.81
2023-03-18T06:46:55.415Z,4.87
2023-03-18T06:49:24.309Z,4.88
2023-03-18T06:51:57.100Z,4.90
2023-03-18T06:54:26.368Z,4.93
2023-03-18T06:56:55.507Z,4.98
2023-03-18T06:59:23.706Z,5.01
2023-03-18T07:01:52.223Z,5.07
2023-03-18T07:04:21.282Z,5.10
2023-03-18T07:06:51.493Z,5.12
2023-03-18T07:09:19.881Z,5.18
2023-03-18T07:11:53.895Z,5.26
2023-03-18T07:14:25.807Z,5.34
2023-03-18T07:16:54.202Z,5.41
2023-03-18T07:19:23.162Z,5.45
2023-03-18T07:21:52.346Z,5.46
2023-03-18T07:24:21.854Z,5.46
2023-03-18T07:26:53.759Z,5.49
2023-03-18T07:29:21.963Z,5.51
2023-03-18T07:31:50.282Z,5.56
2023-03-18T07:34:19.590Z,5.58
2023-03-18T07:36:48.585Z,5.61
2023-03-18T07:39:17.273Z,5.61
2023-03-18T07:41:45.657Z,5.63
2023-03-18T07:44:22.020Z,5.66
2023-03-18T07:46:50.456Z,5.75
2023-03-18T07:49:18.701Z,5.83
2023-03-18T07:51:47.387Z,5.94
2023-03-18T07:54:15.691Z,6.05
2023-03-18T07:56:43.854Z,6.18
2023-03-18T07:59:12.633Z,6.23
2023-03-18T08:01:41.593Z,6.20
2023-03-18T08:04:10.842Z,6.24
2023-03-18T08:06:39.426Z,6.31
2023-03-18T08:09:07.615Z,6.37
2023-03-18T08:11:37.118Z,6.44
2023-03-18T08:14:05.889Z,6.45
2023-03-18T08:16:34.143Z,6.46
2023-03-18T08:19:02.585Z,6.41
2023-03-18T08:21:31.060Z,6.39
2023-03-18T08:23:59.341Z,6.40
2023-03-18T08:26:27.641Z,6.45
2023-03-18T08:28:55.918Z,6.50
2023-03-18T08:31:24.276Z,6.55
2023-03-18T08:33:55.950Z,6.61
2023-03-18T08:36:25.464Z,6.67
2023-03-18T08:38:53.740Z,6.74
2023-03-18T08:41:22.380Z,6.84
2023-03-18T08:43:52.556Z,6.92
2023-03-18T08:46:21.223Z,7.04
2023-03-18T08:48:49.956Z,7.20
2023-03-18T08:51:18.329Z,7.33
2023-03-18T08:53:46.419Z,7.49
2023-03-18T08:56:15.606Z,7.60
2023-03-18T08:58:46.556Z,7.74
2023-03-18T09:01:15.193Z,7.90
2023-03-18T09:03:44.920Z,7.99
2023-03-18T09:06:13.245Z,8.01
2023-03-18T09:08:41.622Z,8.02
2023-03-18T09:11:10.904Z,8.03
2023-03-18T09:13:39.273Z,7.95
2023-03-18T09:16:08.594Z,7.89
2023-03-18T09:18:37.205Z,7.89
2023-03-18T09:21:05.612Z,7.91
2023-03-18T09:23:34.582Z,7.97
2023-03-18T09:26:03.905Z,8.04
2023-03-18T09:28:32.386Z,8.09
2023-03-18T09:31:01.956Z,8.20
2023-03-18T09:33:30.384Z,8.35
2023-03-18T09:35:58.613Z,8.46
2023-03-18T09:38:27.344Z,8.54
2023-03-18T09:41:02.786Z,8.55
2023-03-18T09:43:47.129Z,8.55
2023-03-18T09:46:33.696Z,8.59
2023-03-18T09:49:25.467Z,8.65
2023-03-18T09:52:01.206Z,8.68
2023-03-18T09:54:41.435Z,8.68
2023-03-18T09:57:20.194Z,8.65
2023-03-18T09:59:55.091Z,8.70
2023-03-18T10:02:32.926Z,8.79
2023-03-18T10:05:03.657Z,8.85
2023-03-18T10:07:35.112Z,8.91
2023-03-18T10:10:09.685Z,9.00
2023-03-18T10:12:45.500Z,9.13
2023-03-18T10:15:22.940Z,9.23
2023-03-18T10:17:54.458Z,9.27
2023-03-18T10:20:25.784Z,9.31
2023-03-18T10:23:13.050Z,9.27
2023-03-18T10:25:41.692Z,9.23
2023-03-18T10:28:16.528Z,9.16
2023-03-18T10:30:44.711Z,9.09
2023-03-18T10:33:17.779Z,9.05
2023-03-18T10:35:48.901Z,9.05
2023-03-18T10:38:52.738Z,9.08
2023-03-18T10:41:29.925Z,9.02
2023-03-18T10:44:00.870Z,9.00
2023-03-18T10:46:30.840Z,8.98
2023-03-18T10:49:08.659Z,8.97
2023-03-18T10:51:43.719Z,8.95
2023-03-18T10:54:16.148Z,8.89
2023-03-18T10:56:45.196Z,8.89
2023-03-18T10:59:18.286Z,8.89
2023-03-18T11:01:52.554Z,8.84
2023-03-18T11:07:08.356Z,8.85
2023-03-18T11:09:39.675Z,8.87
2023-03-18T11:12:19.101Z,8.82
2023-03-18T11:14:49.426Z,8.78
2023-03-18T11:17:32.217Z,8.76
2023-03-18T11:20:08.406Z,8.75
2023-03-18T11:22:37.293Z,8.76
2023-03-18T11:25:16.757Z,8.76
2023-03-18T11:27:46.515Z,8.78
2023-03-18T11:30:21.406Z,8.81
2023-03-18T11:33:05.015Z,8.84
2023-03-18T11:35:38.303Z,8.83
2023-03-18T11:38:14.063Z,8.82
2023-03-18T11:40:42.138Z,8.83
2023-03-18T11:43:16.981Z,8.90
2023-03-18T11:45:51.180Z,8.96
2023-03-18T11:48:29.184Z,9.01
2023-03-18T11:51:06.318Z,9.01
2023-03-18T11:53:52.773Z,9.02
2023-03-18T11:56:27.868Z,9.09
2023-03-18T11:58:56.725Z,9.13
2023-03-18T12:01:35.944Z,9.18
2023-03-18T12:04:25.914Z,9.22
2023-03-18T12:07:05.859Z,9.32
2023-03-18T12:09:47.440Z,9.40
2023-03-18T12:12:34.569Z,9.46
2023-03-18T12:15:10.080Z,9.49
2023-03-18T12:18:07.036Z,9.46
2023-03-18T12:20:53.775Z,9.49
2023-03-18T12:23:51.787Z,9.51
2023-03-18T12:26:26.642Z,9.53
2023-03-18T12:29:13.437Z,9.59
2023-03-18T12:31:49.726Z,9.63
2023-03-18T12:34:30.653Z,9.70
2023-03-18T12:37:18.196Z,9.77
2023-03-18T12:39:59.600Z,9.82
2023-03-18T12:42:30.927Z,9.87
2023-03-18T12:44:59.441Z,9.95
2023-03-18T12:47:37.429Z,10.06
2023-03-18T12:50:09.182Z,10.15
2023-03-18T12:52:40.093Z,10.29
2023-03-18T12:55:18.536Z,10.39
2023-03-18T12:57:49.488Z,10.57
2023-03-18T13:00:26.347Z,10.79
2023-03-18T13:03:00.435Z,10.92
2023-03-18T13:05:38.580Z,10.98
2023-03-18T13:08:22.207Z,11.12
2023-03-18T13:10:55.322Z,11.26
2023-03-18T13:13:26.460Z,11.27
2023-03-18T13:15:54.752Z,11.28
2023-03-18T13:18:38.686Z,11.46
2023-03-18T13:21:08.184Z,11.61
2023-03-18T13:23:51.810Z,11.61
2023-03-18T13:26:34.720Z,11.64
2023-03-18T13:29:13.136Z,11.61
2023-03-18T13:31:52.530Z,11.55
2023-03-18T13:34:26.502Z,11.42
2023-03-18T13:37:13.501Z,11.34
2023-03-18T13:39:44.638Z,11.24
2023-03-18T13:42:18.745Z,11.13
2023-03-18T13:44:53.188Z,11.09
2023-03-18T13:47:22.786Z,11.05
2023-03-18T13:49:59.359Z,11.05
2023-03-18T13:52:33.775Z,11.05
2023-03-18T13:55:07.584Z,10.98
2023-03-18T13:57:46.621Z,10.87
2023-03-18T14:00:34.765Z,10.84
2023-03-18T14:03:24.989Z,10.83
2023-03-18T14:06:05.804Z,10.85
2023-03-18T14:08:47.382Z,10.84
2023-03-18T14:11:16.858Z,10.78
2023-03-18T14:13:50.597Z,10.76
2023-03-18T14:16:28.679Z,10.84
2023-03-18T14:18:59.032Z,10.91
2023-03-18T14:21:28.958Z,11.04
2023-03-18T14:24:15.664Z,11.20
2023-03-18T14:27:08.193Z,11.67
2023-03-18T14:29:47.381Z,11.87
2023-03-18T14:32:21.434Z,12.13
2023-03-18T14:35:08.257Z,12.28
2023-03-18T14:37:54.840Z,12.23
2023-03-18T14:40:23.233Z,12.20
2023-03-18T14:42:58.680Z,12.08
2023-03-18T14:45:27.862Z,11.98
2023-03-18T14:47:57.868Z,11.80
2023-03-18T14:50:29.757Z,11.59
2023-03-18T14:53:02.555Z,11.37
2023-03-18T14:55:33.324Z,11.21
2023-03-18T14:58:02.384Z,11.00
2023-03-18T15:00:33.684Z,10.88
2023-03-18T15:03:22.118Z,10.75
2023-03-18T15:05:51.597Z,10.62
2023-03-18T15:08:21.609Z,10.52
2023-03-18T15:10:51.791Z,10.47
2023-03-18T15:13:21.449Z,10.42
2023-03-18T15:15:55.029Z,10.34
2023-03-18T15:18:34.789Z,10.23
2023-03-18T15:21:07.880Z,10.05
2023-03-18T15:23:38.722Z,9.87
2023-03-18T15:26:09.680Z,9.72
2023-03-18T15:28:38.873Z,9.61
2023-03-18T15:31:07.693Z,9.53
2023-03-18T15:33:37.277Z,9.46
2023-03-18T15:36:17.419Z,9.36
2023-03-18T15:38:51.771Z,9.23
2023-03-18T15:41:23.457Z,9.15
2023-03-18T15:43:52.288Z,9.11
2023-03-18T15:46:33.298Z,9.10
2023-03-18T15:49:02.999Z,9.09
2023-03-18T15:51:40.400Z,9.06
2023-03-18T15:54:19.408Z,9.03
2023-03-18T15:56:49.230Z,9.01
2023-03-18T15:59:23.671Z,8.99
2023-03-18T16:01:54.056Z,8.94
2023-03-18T16:04:23.162Z,8.87
2023-03-18T16:06:54.934Z,8.81
2023-03-18T16:09:24.246Z,8.75
2023-03-18T16:12:15.583Z,8.69
2023-03-18T16:14:48.129Z,8.63
2023-03-18T16:17:21.833Z,8.58
2023-03-18T16:19:55.442Z,8.53
2023-03-18T16:22:23.629Z,8.49
2023-03-18T16:24:51.810Z,8.42
2023-03-18T16:27:33.288Z,8.35
2023-03-18T16:30:02.146Z,8.30
2023-03-18T16:32:31.416Z,8.24
2023-03-18T16:35:00.754Z,8.16
2023-03-18T16:37:29.490Z,8.09
2023-03-18T16:39:57.873Z,8.03
2023-03-18T16:42:27.436Z,7.97
2023-03-18T16:44:56.069Z,7.92
2023-03-18T16:47:27.428Z,7.86
2023-03-18T16:49:56.746Z,7.81
2023-03-18T16:52:25.622Z,7.79
2023-03-18T16:54:53.700Z,7.76
2023-03-18T16:57:22.155Z,7.72
2023-03-18T16:59:54.321Z,7.68
2023-03-18T17:02:35.231Z,7.62
2023-03-18T17:05:03.815Z,7.55
2023-03-18T17:07:34.244Z,7.48
2023-03-18T17:10:02.326Z,7.44
2023-03-18T17:12:31.019Z,7.39
2023-03-18T17:14:59.701Z,7.34
2023-03-18T17:17:33.181Z,7.30
2023-03-18T17:20:02.527Z,7.26
2023-03-18T17:22:32.733Z,7.20
2023-03-18T17:25:02.791Z,7.17
2023-03-18T17:27:34.065Z,7.13
2023-03-18T17:30:02.399Z,7.06
2023-03-18T17:32:30.598Z,6.99
2023-03-18T17:35:01.613Z,6.97
2023-03-18T17:37:32.044Z,6.96
2023-03-18T17:40:00.130Z,6.94
2023-03-18T17:42:29.973Z,6.92
2023-03-18T17:45:01.594Z,6.90
2023-03-18T17:47:30.714Z,6.87
2023-03-18T17:49:59.397Z,6.85
2023-03-18T17:52:28.086Z,6.84
2023-03-18T17:55:05.686Z,6.84
2023-03-18T17:57:34.163Z,6.82
2023-03-18T18:00:02.446Z,6.79
2023-03-18T18:02:39.807Z,6.76
2023-03-18T18:05:13.538Z,6.73
2023-03-18T18:07:43.433Z,6.70
2023-03-18T18:10:12.941Z,6.68
2023-03-18T18:12:43.569Z,6.67
2023-03-18T18:15:31.027Z,6.64
2023-03-18T18:17:59.926Z,6.59
2023-03-18T18:20:28.300Z,6.55
2023-03-18T18:22:56.925Z,6.51
2023-03-18T18:25:27.422Z,6.46
2023-03-18T18:27:55.469Z,6.40
2023-03-18T18:30:24.271Z,6.33
2023-03-18T18:32:52.508Z,6.26
2023-03-18T18:35:22.296Z,6.20
2023-03-18T18:37:50.380Z,6.15
2023-03-18T18:40:19.368Z,6.09
2023-03-18T18:42:48.173Z,6.01
2023-03-18T18:45:19.205Z,5.93
2023-03-18T18:47:47.693Z,5.87
2023-03-18T18:50:17.779Z,5.81
2023-03-18T18:52:46.108Z,5.77
2023-03-18T18:55:14.580Z,5.72
2023-03-18T18:57:43.014Z,5.69
2023-03-18T19:00:18.499Z,5.63
2023-03-18T19:02:47.209Z,5.60
2023-03-18T19:05:16.638Z,5.56
2023-03-18T19:07:46.637Z,5.55
2023-03-18T19:10:16.148Z,5.54
2023-03-18T19:12:45.165Z,5.53
2023-03-18T19:15:15.616Z,5.49
2023-03-18T19:17:44.061Z,5.47
2023-03-18T19:20:42.225Z,5.45
2023-03-18T19:23:17.637Z,5.43
2023-03-18T19:25:46.822Z,5.40
2023-03-18T19:28:17.003Z,5.39
2023-03-18T19:30:45.077Z,5.38
2023-03-18T19:33:17.249Z,5.40
2023-03-18T19:35:46.322Z,5.41
2023-03-18T19:38:20.420Z,5.41
2023-03-18T19:40:49.298Z,5.39
2023-03-18T19:43:18.974Z,5.39
2023-03-18T19:45:50.484Z,5.38
2023-03-18T19:48:20.559Z,5.40
2023-03-18T19:50:48.639Z,5.44
2023-03-18T19:53:18.051Z,5.49
2023-03-18T19:55:47.851Z,5.55
2023-03-18T19:58:24.285Z,5.59
2023-03-18T20:00:53.855Z,5.59
2023-03-18T20:03:24.218Z,5.62
2023-03-18T20:05:53.252Z,5.67
2023-03-18T20:08:21.738Z,5.70
2023-03-18T20:10:49.816Z,5.73
2023-03-18T20:13:18.409Z,5.77
2023-03-18T20:15:46.896Z,5.73
2023-03-18T20:18:17.118Z,5.71
2023-03-18T20:20:47.449Z,5.74
2023-03-18T20:23:19.086Z,5.76
2023-03-18T20:25:51.277Z,5.76
2023-03-18T20:28:24.275Z,5.77
2023-03-18T20:30:53.370Z,5.79
2023-03-18T20:33:22.425Z,5.78
2023-03-18T20:35:52.278Z,5.74
2023-03-18T20:38:29.797Z,5.73
2023-03-18T20:40:57.868Z,5.74
2023-03-18T20:43:28.612Z,5.74
2023-03-18T20:45:58.842Z,5.71
2023-03-18T20:48:28.241Z,5.70
2023-03-18T20:50:57.641Z,5.67
2023-03-18T20:53:28.388Z,5.65
2023-03-18T20:55:56.780Z,5.63
2023-03-18T20:58:26.663Z,5.62
2023-03-18T21:00:55.232Z,5.60
2023-03-18T21:03:28.430Z,5.56
2023-03-18T21:05:58.082Z,5.53
2023-03-18T21:08:27.584Z,5.49
2023-03-18T21:10:58.160Z,5.45
2023-03-18T21:13:29.268Z,5.40
2023-03-18T21:16:01.196Z,5.34
2023-03-18T21:18:29.724Z,5.31
2023-03-18T21:20:58.228Z,5.28
2023-03-18T21:23:27.718Z,5.26
2023-03-18T21:25:56.426Z,5.22
2023-03-18T21:28:25.702Z,5.20
2023-03-18T21:30:56.877Z,5.18
2023-03-18T21:33:28.325Z,5.15
2023-03-18T21:35:57.256Z,5.12
2023-03-18T21:38:26.410Z,5.08
2023-03-18T21:40:55.740Z,5.05
2023-03-18T21:43:34.641Z,5.01
2023-03-18T21:46:05.953Z,4.99
2023-03-18T21:48:34.597Z,4.96
2023-03-18T21:51:35.151Z,4.96
2023-03-18T21:54:06.555Z,4.89
2023-03-18T21:56:34.630Z,4.83
2023-03-18T21:59:02.919Z,4.76
2023-03-18T22:01:32.483Z,4.67
2023-03-18T22:04:00.764Z,4.61
2023-03-18T22:06:28.996Z,4.54
2023-03-18T22:08:57.529Z,4.46
2023-03-18T22:11:26.040Z,4.39
2023-03-18T22:13:54.753Z,4.32
2023-03-18T22:16:23.121Z,4.26
2023-03-18T22:18:51.748Z,4.21
2023-03-18T22:21:24.468Z,4.15
2023-03-18T22:23:53.225Z,4.09
2023-03-18T22:26:21.910Z,4.03
2023-03-18T22:28:50.872Z,3.96
2023-03-18T22:31:21.089Z,3.88
2023-03-18T22:33:49.734Z,3.81
2023-03-18T22:36:19.137Z,3.72
2023-03-18T22:38:47.806Z,3.66
2023-03-18T22:41:20.913Z,3.59
2023-03-18T22:43:49.586Z,3.50
2023-03-18T22:46:18.253Z,3.44
2023-03-18T22:48:46.815Z,3.38
2023-03-18T22:51:26.519Z,3.33
2023-03-18T22:53:54.996Z,3.28
2023-03-18T22:56:23.768Z,3.24
2023-03-18T22:58:53.197Z,3.20
2023-03-18T23:01:23.150Z,3.14
2023-03-18T23:03:51.502Z,3.07
2023-03-18T23:06:21.022Z,3.03
2023-03-18T23:08:49.504Z,2.95
2023-03-18T23:11:17.850Z,2.89
2023-03-18T23:13:49.977Z,2.81
2023-03-18T23:16:20.630Z,2.74
2023-03-18T23:18:49.486Z,2.71
2023-03-18T23:21:19.712Z,2.66
2023-03-18T23:23:47.912Z,2.60
2023-03-18T23:26:16.803Z,2.55
2023-03-18T23:28:46.004Z,2.52
2023-03-18T23:31:16.845Z,2.48
2023-03-18T23:33:45.316Z,2.46
2023-03-18T23:36:13.932Z,2.44
2023-03-18T23:38:42.805Z,2.41
2023-03-18T23:41:10.854Z,2.36
2023-03-18T23:43:38.961Z,2.33
2023-03-18T23:46:08.630Z,2.30
2023-03-18T23:48:37.457Z,2.27
2023-03-18T23:51:06.573Z,2.23
2023-03-18T23:53:34.700Z,2.20
2023-03-18T23:56:03.034Z,2.15
2023-03-18T23:58:31.207Z,2.10
